Millboro, Virginia
Current Conditions -  °F | °C
As of 12:35 PM on Saturday 22 Nov 2014 (Local Time) from KHSP Reporting Station
Clear Clear  
Wind Chill: 42°   Ceiling: Unl
Heat Index: 47°   Visibility: 10mi
Dew Point: 17°   Wind: 12mph
Humidity: 30%   Direction: 270°W
Pressure: 30.29"   Gusts: 21mph
Location:  37.98°N, 79.6°W
Report Text: KHSP 221735Z AUTO 27010G18KT 10SM CLR 09/M08 A3029 RMK AO2 T00851084
Loading
Personal Weather Stations






























Interactive Weather Map New forecast layout! Learn more

10-Day Weather Forecast

Advertisements
Track Severe Weather on mobile